KOWD/OWD METAR and TAF weather

Enter ICAO airport designator
Station Type Date Time Source
KOWD METAR 2021/05/15 22:53 UTC NOAA

KOWD 152253Z 16008KT 10SM CLR 22/04 A3014 RMK AO2 SLP206 T02220044


Station Type Date Time Source
KOWD Decoded METAR 2021/05/15 22:53 UTC NOAA

NORWOOD MEMORIAL AIRPORT, MA, United States (KOWD) 42-11N 71-10W 19M
May 15, 2021 - 06:53 PM EDT / 2021.05.15 2253 UTC
Wind: from the SSE (160 degrees) at 9 MPH (8 KT):0
Visibility: 10 mile(s):0
Sky conditions: clear
Temperature: 72.0 F (22.2 C)
Dew Point: 39.9 F (4.4 C)
Relative Humidity: 31%
Pressure (altimeter): 30.14 in. Hg (1020 hPa)
ob: KOWD 152253Z 16008KT 10SM CLR 22/04 A3014 RMK AO2 SLP206 T02220044
cycle: 23

Station Type Date Time Source
KOWD TAF UTC NOAA

Error!

Example: see airport list